sensor_id;sensor_type;location;lat;lon;timestamp;temperature;humidity
11922;DHT22;6021;51.182;3.160;2023-07-30T00:02:09;16.00;99.90
11922;DHT22;6021;51.182;3.160;2023-07-30T00:04:37;16.00;99.90
11922;DHT22;6021;51.182;3.160;2023-07-30T00:07:05;16.00;99.90
11922;DHT22;6021;51.182;3.160;2023-07-30T00:09:34;15.90;99.90
11922;DHT22;6021;51.182;3.160;2023-07-30T00:12:03;15.90;99.90
11922;DHT22;6021;51.182;3.160;2023-07-30T00:14:31;15.90;99.90
11922;DHT22;6021;51.182;3.160;2023-07-30T00:17:00;16.00;99.90
11922;DHT22;6021;51.182;3.160;2023-07-30T00:19:28;16.10;99.90
11922;DHT22;6021;51.182;3.160;2023-07-30T00:21:58;16.10;99.90
11922;DHT22;6021;51.182;3.160;2023-07-30T00:24:26;16.10;99.90
11922;DHT22;6021;51.182;3.160;2023-07-30T00:26:54;16.00;99.90
11922;DHT22;6021;51.182;3.160;2023-07-30T00:29:23;16.10;99.90
11922;DHT22;6021;51.182;3.160;2023-07-30T00:31:51;16.10;99.90
11922;DHT22;6021;51.182;3.160;2023-07-30T00:34:19;16.00;99.90
11922;DHT22;6021;51.182;3.160;2023-07-30T00:36:48;16.10;99.90
11922;DHT22;6021;51.182;3.160;2023-07-30T00:39:16;16.10;99.90
11922;DHT22;6021;51.182;3.160;2023-07-30T00:41:44;15.90;99.90
11922;DHT22;6021;51.182;3.160;2023-07-30T00:44:13;15.80;99.90
11922;DHT22;6021;51.182;3.160;2023-07-30T00:46:41;15.90;99.90
11922;DHT22;6021;51.182;3.160;2023-07-30T00:49:10;16.00;99.90
11922;DHT22;6021;51.182;3.160;2023-07-30T00:51:38;16.10;99.90
11922;DHT22;6021;51.182;3.160;2023-07-30T00:54:07;16.20;99.90
11922;DHT22;6021;51.182;3.160;2023-07-30T00:56:35;16.20;99.90
11922;DHT22;6021;51.182;3.160;2023-07-30T00:59:04;16.10;99.90
11922;DHT22;6021;51.182;3.160;2023-07-30T01:01:34;16.10;99.90
11922;DHT22;6021;51.182;3.160;2023-07-30T01:04:04;15.90;99.90
11922;DHT22;6021;51.182;3.160;2023-07-30T01:06:32;15.90;99.90
11922;DHT22;6021;51.182;3.160;2023-07-30T01:09:01;15.90;99.90
11922;DHT22;6021;51.182;3.160;2023-07-30T01:11:30;15.90;99.90
11922;DHT22;6021;51.182;3.160;2023-07-30T01:13:58;15.80;99.90
11922;DHT22;6021;51.182;3.160;2023-07-30T01:16:27;15.80;99.90
11922;DHT22;6021;51.182;3.160;2023-07-30T01:18:55;15.80;99.90
11922;DHT22;6021;51.182;3.160;2023-07-30T01:21:25;15.90;99.90
11922;DHT22;6021;51.182;3.160;2023-07-30T01:23:54;15.80;99.90
11922;DHT22;6021;51.182;3.160;2023-07-30T01:26:28;15.80;99.90
11922;DHT22;6021;51.182;3.160;2023-07-30T01:29:00;15.90;99.90
11922;DHT22;6021;51.182;3.160;2023-07-30T01:31:30;15.80;99.90
11922;DHT22;6021;51.182;3.160;2023-07-30T01:34:01;15.70;99.90
11922;DHT22;6021;51.182;3.160;2023-07-30T01:36:32;15.70;99.90
11922;DHT22;6021;51.182;3.160;2023-07-30T01:39:02;15.60;99.90
11922;DHT22;6021;51.182;3.160;2023-07-30T01:41:30;15.50;99.90
11922;DHT22;6021;51.182;3.160;2023-07-30T01:43:58;15.50;99.90
11922;DHT22;6021;51.182;3.160;2023-07-30T01:46:27;15.60;99.90
11922;DHT22;6021;51.182;3.160;2023-07-30T01:48:55;15.50;99.90
11922;DHT22;6021;51.182;3.160;2023-07-30T01:51:23;15.50;99.90
11922;DHT22;6021;51.182;3.160;2023-07-30T01:53:52;15.50;99.90
11922;DHT22;6021;51.182;3.160;2023-07-30T01:56:20;15.60;99.90
11922;DHT22;6021;51.182;3.160;2023-07-30T01:58:48;15.70;99.90
11922;DHT22;6021;51.182;3.160;2023-07-30T02:01:17;15.50;99.90
11922;DHT22;6021;51.182;3.160;2023-07-30T02:03:45;15.40;99.90
11922;DHT22;6021;51.182;3.160;2023-07-30T02:06:13;15.40;99.90
11922;DHT22;6021;51.182;3.160;2023-07-30T02:08:42;15.60;99.90
11922;DHT22;6021;51.182;3.160;2023-07-30T02:11:10;15.40;99.90
11922;DHT22;6021;51.182;3.160;2023-07-30T02:13:39;15.40;99.90
11922;DHT22;6021;51.182;3.160;2023-07-30T02:16:08;15.30;99.90
11922;DHT22;6021;51.182;3.160;2023-07-30T02:18:36;15.30;99.90
11922;DHT22;6021;51.182;3.160;2023-07-30T02:21:04;15.30;99.90
11922;DHT22;6021;51.182;3.160;2023-07-30T02:23:33;15.30;99.90
11922;DHT22;6021;51.182;3.160;2023-07-30T02:26:01;15.30;99.90
11922;DHT22;6021;51.182;3.160;2023-07-30T02:28:30;15.30;99.90
11922;DHT22;6021;51.182;3.160;2023-07-30T02:30:58;15.40;99.90
11922;DHT22;6021;51.182;3.160;2023-07-30T02:33:26;15.30;99.90
11922;DHT22;6021;51.182;3.160;2023-07-30T02:35:54;15.40;99.90
11922;DHT22;6021;51.182;3.160;2023-07-30T02:38:23;15.50;99.90
11922;DHT22;6021;51.182;3.160;2023-07-30T02:40:51;15.60;99.90
11922;DHT22;6021;51.182;3.160;2023-07-30T02:43:20;15.50;99.90
11922;DHT22;6021;51.182;3.160;2023-07-30T02:45:48;15.50;99.90
11922;DHT22;6021;51.182;3.160;2023-07-30T02:48:17;15.50;99.90
11922;DHT22;6021;51.182;3.160;2023-07-30T02:50:45;15.50;99.90
11922;DHT22;6021;51.182;3.160;2023-07-30T02:53:13;15.60;99.90
11922;DHT22;6021;51.182;3.160;2023-07-30T02:55:42;15.60;99.90
11922;DHT22;6021;51.182;3.160;2023-07-30T02:58:10;15.60;99.90
11922;DHT22;6021;51.182;3.160;2023-07-30T03:00:38;15.60;99.90
11922;DHT22;6021;51.182;3.160;2023-07-30T03:03:07;15.60;99.90
11922;DHT22;6021;51.182;3.160;2023-07-30T03:05:35;15.50;99.90
11922;DHT22;6021;51.182;3.160;2023-07-30T03:08:04;15.60;99.90
11922;DHT22;6021;51.182;3.160;2023-07-30T03:10:32;15.70;99.90
11922;DHT22;6021;51.182;3.160;2023-07-30T03:13:00;15.70;99.90
11922;DHT22;6021;51.182;3.160;2023-07-30T03:15:28;15.70;99.90
11922;DHT22;6021;51.182;3.160;2023-07-30T03:17:57;15.80;99.90
11922;DHT22;6021;51.182;3.160;2023-07-30T03:20:25;15.80;99.90
11922;DHT22;6021;51.182;3.160;2023-07-30T03:22:53;15.70;99.90
11922;DHT22;6021;51.182;3.160;2023-07-30T03:25:22;15.60;99.90
11922;DHT22;6021;51.182;3.160;2023-07-30T03:27:50;15.70;99.90
11922;DHT22;6021;51.182;3.160;2023-07-30T03:30:18;15.60;99.90
11922;DHT22;6021;51.182;3.160;2023-07-30T03:32:47;15.60;99.90
11922;DHT22;6021;51.182;3.160;2023-07-30T03:35:15;15.70;99.90
11922;DHT22;6021;51.182;3.160;2023-07-30T03:37:44;15.60;99.90
11922;DHT22;6021;51.182;3.160;2023-07-30T03:40:12;15.50;99.90
11922;DHT22;6021;51.182;3.160;2023-07-30T03:42:40;15.60;99.90
11922;DHT22;6021;51.182;3.160;2023-07-30T03:45:09;15.70;99.90
11922;DHT22;6021;51.182;3.160;2023-07-30T03:47:38;15.80;99.90
11922;DHT22;6021;51.182;3.160;2023-07-30T03:50:06;15.70;99.90
11922;DHT22;6021;51.182;3.160;2023-07-30T03:52:35;15.80;99.90
11922;DHT22;6021;51.182;3.160;2023-07-30T03:55:03;15.80;99.90
11922;DHT22;6021;51.182;3.160;2023-07-30T03:57:31;15.80;99.90
11922;DHT22;6021;51.182;3.160;2023-07-30T04:00:00;15.80;99.90
11922;DHT22;6021;51.182;3.160;2023-07-30T04:02:30;15.80;99.90
11922;DHT22;6021;51.182;3.160;2023-07-30T04:04:58;15.80;99.90
11922;DHT22;6021;51.182;3.160;2023-07-30T04:07:27;15.80;99.90
11922;DHT22;6021;51.182;3.160;2023-07-30T04:09:55;15.80;99.90
11922;DHT22;6021;51.182;3.160;2023-07-30T04:12:23;15.70;99.90
11922;DHT22;6021;51.182;3.160;2023-07-30T04:14:52;15.70;99.90
11922;DHT22;6021;51.182;3.160;2023-07-30T04:17:20;15.80;99.90
11922;DHT22;6021;51.182;3.160;2023-07-30T04:19:49;15.80;99.90
11922;DHT22;6021;51.182;3.160;2023-07-30T04:22:17;15.70;99.90
11922;DHT22;6021;51.182;3.160;2023-07-30T04:24:45;15.60;99.90
11922;DHT22;6021;51.182;3.160;2023-07-30T04:27:14;15.70;99.90
11922;DHT22;6021;51.182;3.160;2023-07-30T04:29:42;15.70;99.90
11922;DHT22;6021;51.182;3.160;2023-07-30T04:32:11;15.70;99.90
11922;DHT22;6021;51.182;3.160;2023-07-30T04:34:39;15.60;99.90
11922;DHT22;6021;51.182;3.160;2023-07-30T04:37:08;15.70;99.90
11922;DHT22;6021;51.182;3.160;2023-07-30T04:39:36;15.80;99.90
11922;DHT22;6021;51.182;3.160;2023-07-30T04:42:04;15.70;99.90
11922;DHT22;6021;51.182;3.160;2023-07-30T04:44:33;15.90;99.90
11922;DHT22;6021;51.182;3.160;2023-07-30T04:47:01;15.80;99.90
11922;DHT22;6021;51.182;3.160;2023-07-30T04:49:29;16.00;99.90
11922;DHT22;6021;51.182;3.160;2023-07-30T04:51:58;15.70;99.90
11922;DHT22;6021;51.182;3.160;2023-07-30T04:54:26;15.60;99.90
11922;DHT22;6021;51.182;3.160;2023-07-30T04:56:54;15.60;99.90
11922;DHT22;6021;51.182;3.160;2023-07-30T04:59:23;15.70;99.90
11922;DHT22;6021;51.182;3.160;2023-07-30T05:01:51;15.80;99.90
11922;DHT22;6021;51.182;3.160;2023-07-30T05:04:19;15.90;99.90
11922;DHT22;6021;51.182;3.160;2023-07-30T05:06:48;15.90;99.90
11922;DHT22;6021;51.182;3.160;2023-07-30T05:09:16;15.90;99.90
11922;DHT22;6021;51.182;3.160;2023-07-30T05:11:45;16.10;99.90
11922;DHT22;6021;51.182;3.160;2023-07-30T05:14:13;16.00;99.90
11922;DHT22;6021;51.182;3.160;2023-07-30T05:16:42;16.00;99.90
11922;DHT22;6021;51.182;3.160;2023-07-30T05:19:10;16.00;99.90
11922;DHT22;6021;51.182;3.160;2023-07-30T05:21:38;16.10;99.90
11922;DHT22;6021;51.182;3.160;2023-07-30T05:24:07;15.90;99.90
11922;DHT22;6021;51.182;3.160;2023-07-30T05:26:35;16.10;99.90
11922;DHT22;6021;51.182;3.160;2023-07-30T05:29:04;16.10;99.90
11922;DHT22;6021;51.182;3.160;2023-07-30T05:31:32;16.10;99.90
11922;DHT22;6021;51.182;3.160;2023-07-30T05:34:00;16.10;99.90
11922;DHT22;6021;51.182;3.160;2023-07-30T05:36:29;16.10;99.90
11922;DHT22;6021;51.182;3.160;2023-07-30T05:39:00;16.20;99.90
11922;DHT22;6021;51.182;3.160;2023-07-30T05:41:28;16.10;99.90
11922;DHT22;6021;51.182;3.160;2023-07-30T05:43:57;16.10;99.90
11922;DHT22;6021;51.182;3.160;2023-07-30T05:46:25;16.20;99.90
11922;DHT22;6021;51.182;3.160;2023-07-30T05:48:53;16.20;99.90
11922;DHT22;6021;51.182;3.160;2023-07-30T05:51:22;16.30;99.90
11922;DHT22;6021;51.182;3.160;2023-07-30T05:53:50;16.30;99.90
11922;DHT22;6021;51.182;3.160;2023-07-30T05:56:19;16.20;99.90
11922;DHT22;6021;51.182;3.160;2023-07-30T05:58:47;16.30;99.90
11922;DHT22;6021;51.182;3.160;2023-07-30T06:01:15;16.30;99.90
11922;DHT22;6021;51.182;3.160;2023-07-30T06:03:44;16.30;99.90
11922;DHT22;6021;51.182;3.160;2023-07-30T06:06:12;16.40;99.90
11922;DHT22;6021;51.182;3.160;2023-07-30T06:08:41;16.40;99.90
11922;DHT22;6021;51.182;3.160;2023-07-30T06:11:09;16.10;99.90
11922;DHT22;6021;51.182;3.160;2023-07-30T06:13:38;16.30;99.90
11922;DHT22;6021;51.182;3.160;2023-07-30T06:16:06;16.40;99.90
11922;DHT22;6021;51.182;3.160;2023-07-30T06:18:34;16.40;99.90
11922;DHT22;6021;51.182;3.160;2023-07-30T06:21:03;16.30;99.90
11922;DHT22;6021;51.182;3.160;2023-07-30T06:23:31;16.40;99.90
11922;DHT22;6021;51.182;3.160;2023-07-30T06:25:59;16.50;99.90
11922;DHT22;6021;51.182;3.160;2023-07-30T06:28:28;16.50;99.90
11922;DHT22;6021;51.182;3.160;2023-07-30T06:31:03;16.40;99.90
11922;DHT22;6021;51.182;3.160;2023-07-30T06:33:32;16.60;99.90
11922;DHT22;6021;51.182;3.160;2023-07-30T06:36:00;16.60;99.90
11922;DHT22;6021;51.182;3.160;2023-07-30T06:38:28;16.60;99.90
11922;DHT22;6021;51.182;3.160;2023-07-30T06:40:57;16.60;99.90
11922;DHT22;6021;51.182;3.160;2023-07-30T06:43:25;16.60;99.90
11922;DHT22;6021;51.182;3.160;2023-07-30T06:45:54;16.60;99.90
11922;DHT22;6021;51.182;3.160;2023-07-30T06:48:22;16.80;99.90
11922;DHT22;6021;51.182;3.160;2023-07-30T06:50:51;16.70;99.90
11922;DHT22;6021;51.182;3.160;2023-07-30T06:53:19;16.70;99.90
11922;DHT22;6021;51.182;3.160;2023-07-30T06:55:47;16.70;99.90
11922;DHT22;6021;51.182;3.160;2023-07-30T06:58:16;16.80;99.90
11922;DHT22;6021;51.182;3.160;2023-07-30T07:00:44;16.80;99.90
11922;DHT22;6021;51.182;3.160;2023-07-30T07:03:12;16.60;99.90
11922;DHT22;6021;51.182;3.160;2023-07-30T07:05:41;16.90;99.90
11922;DHT22;6021;51.182;3.160;2023-07-30T07:08:09;16.90;99.90
11922;DHT22;6021;51.182;3.160;2023-07-30T07:10:38;17.00;99.90
11922;DHT22;6021;51.182;3.160;2023-07-30T07:13:06;17.00;99.90
11922;DHT22;6021;51.182;3.160;2023-07-30T07:15:34;17.00;99.90
11922;DHT22;6021;51.182;3.160;2023-07-30T07:18:03;17.10;99.90
11922;DHT22;6021;51.182;3.160;2023-07-30T07:20:31;17.10;99.90
11922;DHT22;6021;51.182;3.160;2023-07-30T07:22:59;17.20;99.90
11922;DHT22;6021;51.182;3.160;2023-07-30T07:25:28;17.20;99.90
11922;DHT22;6021;51.182;3.160;2023-07-30T07:27:56;17.20;99.90
11922;DHT22;6021;51.182;3.160;2023-07-30T07:30:24;17.20;99.90
11922;DHT22;6021;51.182;3.160;2023-07-30T07:32:54;17.30;99.90
11922;DHT22;6021;51.182;3.160;2023-07-30T07:35:23;17.30;99.90
11922;DHT22;6021;51.182;3.160;2023-07-30T07:37:51;17.40;99.90
11922;DHT22;6021;51.182;3.160;2023-07-30T07:40:19;17.40;99.90
11922;DHT22;6021;51.182;3.160;2023-07-30T07:42:48;17.40;99.90
11922;DHT22;6021;51.182;3.160;2023-07-30T07:45:17;17.40;99.90
11922;DHT22;6021;51.182;3.160;2023-07-30T07:47:45;17.40;99.90
11922;DHT22;6021;51.182;3.160;2023-07-30T07:50:13;17.30;99.90
11922;DHT22;6021;51.182;3.160;2023-07-30T07:52:43;17.30;99.90
11922;DHT22;6021;51.182;3.160;2023-07-30T07:55:11;17.30;99.90
11922;DHT22;6021;51.182;3.160;2023-07-30T07:57:40;17.30;93.20
11922;DHT22;6021;51.182;3.160;2023-07-30T08:00:08;17.40;44.70
11922;DHT22;6021;51.182;3.160;2023-07-30T08:02:38;17.50;47.40
11922;DHT22;6021;51.182;3.160;2023-07-30T08:05:06;17.50;34.90
11922;DHT22;6021;51.182;3.160;2023-07-30T08:07:35;17.60;37.90
11922;DHT22;6021;51.182;3.160;2023-07-30T08:10:03;17.80;33.40
11922;DHT22;6021;51.182;3.160;2023-07-30T08:12:32;17.70;25.40
11922;DHT22;6021;51.182;3.160;2023-07-30T08:15:00;17.90;24.40
11922;DHT22;6021;51.182;3.160;2023-07-30T08:17:29;17.90;10.90
11922;DHT22;6021;51.182;3.160;2023-07-30T08:19:57;17.90;9.60
11922;DHT22;6021;51.182;3.160;2023-07-30T08:22:25;17.80;15.20
11922;DHT22;6021;51.182;3.160;2023-07-30T08:24:54;17.90;11.20
11922;DHT22;6021;51.182;3.160;2023-07-30T08:27:22;17.90;18.90
11922;DHT22;6021;51.182;3.160;2023-07-30T08:29:50;18.00;43.40
11922;DHT22;6021;51.182;3.160;2023-07-30T08:32:19;18.10;24.30
11922;DHT22;6021;51.182;3.160;2023-07-30T08:34:47;18.10;1.00
11922;DHT22;6021;51.182;3.160;2023-07-30T08:37:16;18.10;6.70
11922;DHT22;6021;51.182;3.160;2023-07-30T08:39:44;18.10;1.00
11922;DHT22;6021;51.182;3.160;2023-07-30T08:42:12;18.10;1.00
11922;DHT22;6021;51.182;3.160;2023-07-30T08:44:41;18.10;1.00
11922;DHT22;6021;51.182;3.160;2023-07-30T08:47:10;18.10;1.00
11922;DHT22;6021;51.182;3.160;2023-07-30T08:49:38;18.20;1.00
11922;DHT22;6021;51.182;3.160;2023-07-30T08:52:09;18.20;1.00
11922;DHT22;6021;51.182;3.160;2023-07-30T08:54:38;18.30;1.00
11922;DHT22;6021;51.182;3.160;2023-07-30T08:57:07;18.40;1.00
11922;DHT22;6021;51.182;3.160;2023-07-30T08:59:39;18.40;1.00
11922;DHT22;6021;51.182;3.160;2023-07-30T09:02:11;18.50;1.00
11922;DHT22;6021;51.182;3.160;2023-07-30T09:04:40;18.60;1.00
11922;DHT22;6021;51.182;3.160;2023-07-30T09:07:09;18.70;1.00
11922;DHT22;6021;51.182;3.160;2023-07-30T09:09:39;18.70;1.00
11922;DHT22;6021;51.182;3.160;2023-07-30T09:12:14;18.70;1.00
11922;DHT22;6021;51.182;3.160;2023-07-30T09:14:43;18.80;1.00
11922;DHT22;6021;51.182;3.160;2023-07-30T09:17:19;18.90;1.00
11922;DHT22;6021;51.182;3.160;2023-07-30T09:19:47;18.90;1.00
11922;DHT22;6021;51.182;3.160;2023-07-30T09:24:56;19.00;1.00
11922;DHT22;6021;51.182;3.160;2023-07-30T09:27:27;19.10;1.00
11922;DHT22;6021;51.182;3.160;2023-07-30T09:29:56;19.10;1.00
11922;DHT22;6021;51.182;3.160;2023-07-30T09:32:32;19.20;1.00
11922;DHT22;6021;51.182;3.160;2023-07-30T09:35:20;19.20;1.00
11922;DHT22;6021;51.182;3.160;2023-07-30T09:37:50;19.30;1.00
11922;DHT22;6021;51.182;3.160;2023-07-30T09:40:18;19.30;1.00
11922;DHT22;6021;51.182;3.160;2023-07-30T09:42:49;19.20;1.00
11922;DHT22;6021;51.182;3.160;2023-07-30T09:45:21;19.30;1.00
11922;DHT22;6021;51.182;3.160;2023-07-30T09:47:52;19.30;1.00
11922;DHT22;6021;51.182;3.160;2023-07-30T09:50:21;19.30;1.00
11922;DHT22;6021;51.182;3.160;2023-07-30T09:52:49;19.30;1.00
11922;DHT22;6021;51.182;3.160;2023-07-30T09:55:18;19.30;1.00
11922;DHT22;6021;51.182;3.160;2023-07-30T09:57:46;19.20;1.00
11922;DHT22;6021;51.182;3.160;2023-07-30T10:00:15;19.20;1.00
11922;DHT22;6021;51.182;3.160;2023-07-30T10:02:46;19.30;1.00
11922;DHT22;6021;51.182;3.160;2023-07-30T10:05:19;19.30;1.00
11922;DHT22;6021;51.182;3.160;2023-07-30T10:07:59;19.30;1.00
11922;DHT22;6021;51.182;3.160;2023-07-30T10:10:25;19.20;1.00
11922;DHT22;6021;51.182;3.160;2023-07-30T10:12:59;19.10;1.00
11922;DHT22;6021;51.182;3.160;2023-07-30T10:15:27;19.10;1.00
11922;DHT22;6021;51.182;3.160;2023-07-30T10:17:57;19.20;1.00
11922;DHT22;6021;51.182;3.160;2023-07-30T10:20:27;19.20;1.00
11922;DHT22;6021;51.182;3.160;2023-07-30T10:22:58;19.30;1.00
11922;DHT22;6021;51.182;3.160;2023-07-30T10:25:45;19.30;1.00
11922;DHT22;6021;51.182;3.160;2023-07-30T10:28:33;19.30;1.00
11922;DHT22;6021;51.182;3.160;2023-07-30T10:31:05;19.30;1.00
11922;DHT22;6021;51.182;3.160;2023-07-30T10:33:53;19.40;1.00
11922;DHT22;6021;51.182;3.160;2023-07-30T10:36:32;19.30;1.00
11922;DHT22;6021;51.182;3.160;2023-07-30T10:39:18;19.30;1.00
11922;DHT22;6021;51.182;3.160;2023-07-30T10:41:49;19.40;1.00
11922;DHT22;6021;51.182;3.160;2023-07-30T10:44:29;19.40;1.00
11922;DHT22;6021;51.182;3.160;2023-07-30T10:46:48;19.40;1.00
11922;DHT22;6021;51.182;3.160;2023-07-30T10:49:17;19.40;1.00
11922;DHT22;6021;51.182;3.160;2023-07-30T10:51:45;19.50;1.00
11922;DHT22;6021;51.182;3.160;2023-07-30T10:54:13;19.40;1.00
11922;DHT22;6021;51.182;3.160;2023-07-30T10:56:43;19.40;1.00
11922;DHT22;6021;51.182;3.160;2023-07-30T10:59:14;19.40;1.00
11922;DHT22;6021;51.182;3.160;2023-07-30T11:01:44;19.30;1.00
11922;DHT22;6021;51.182;3.160;2023-07-30T11:04:17;19.40;1.00
11922;DHT22;6021;51.182;3.160;2023-07-30T11:06:49;19.30;1.00
11922;DHT22;6021;51.182;3.160;2023-07-30T11:09:24;19.40;1.00
11922;DHT22;6021;51.182;3.160;2023-07-30T11:11:54;19.50;1.00
11922;DHT22;6021;51.182;3.160;2023-07-30T11:14:24;19.50;1.00
11922;DHT22;6021;51.182;3.160;2023-07-30T11:16:59;19.60;1.00
11922;DHT22;6021;51.182;3.160;2023-07-30T11:19:29;19.60;1.00
11922;DHT22;6021;51.182;3.160;2023-07-30T11:21:58;19.50;1.00
11922;DHT22;6021;51.182;3.160;2023-07-30T11:24:36;19.50;1.00
11922;DHT22;6021;51.182;3.160;2023-07-30T11:27:06;19.60;1.00
11922;DHT22;6021;51.182;3.160;2023-07-30T11:29:35;19.70;1.00
11922;DHT22;6021;51.182;3.160;2023-07-30T11:32:04;19.70;1.00
11922;DHT22;6021;51.182;3.160;2023-07-30T11:34:32;19.70;1.00
11922;DHT22;6021;51.182;3.160;2023-07-30T11:37:03;19.80;1.00
11922;DHT22;6021;51.182;3.160;2023-07-30T11:39:32;19.70;1.00
11922;DHT22;6021;51.182;3.160;2023-07-30T11:42:01;19.80;1.00
11922;DHT22;6021;51.182;3.160;2023-07-30T11:44:30;19.80;1.00
11922;DHT22;6021;51.182;3.160;2023-07-30T11:46:59;19.70;1.00
11922;DHT22;6021;51.182;3.160;2023-07-30T11:49:27;19.70;1.00
11922;DHT22;6021;51.182;3.160;2023-07-30T11:52:09;19.80;1.00
11922;DHT22;6021;51.182;3.160;2023-07-30T11:54:38;19.80;1.00
11922;DHT22;6021;51.182;3.160;2023-07-30T11:57:06;19.80;1.00
11922;DHT22;6021;51.182;3.160;2023-07-30T11:59:35;19.90;1.00
11922;DHT22;6021;51.182;3.160;2023-07-30T12:02:04;19.90;1.00
11922;DHT22;6021;51.182;3.160;2023-07-30T12:04:43;20.10;1.00
11922;DHT22;6021;51.182;3.160;2023-07-30T12:07:21;20.10;1.00
11922;DHT22;6021;51.182;3.160;2023-07-30T12:09:43;20.10;1.00
11922;DHT22;6021;51.182;3.160;2023-07-30T12:12:11;20.10;1.00
11922;DHT22;6021;51.182;3.160;2023-07-30T12:17:21;20.20;1.00
11922;DHT22;6021;51.182;3.160;2023-07-30T12:19:49;20.30;1.00
11922;DHT22;6021;51.182;3.160;2023-07-30T12:22:18;20.20;1.00
11922;DHT22;6021;51.182;3.160;2023-07-30T12:24:46;20.30;1.00
11922;DHT22;6021;51.182;3.160;2023-07-30T12:27:15;20.40;1.00
11922;DHT22;6021;51.182;3.160;2023-07-30T12:29:43;20.40;1.00
11922;DHT22;6021;51.182;3.160;2023-07-30T12:32:11;20.50;1.00
11922;DHT22;6021;51.182;3.160;2023-07-30T12:34:40;20.40;1.00
11922;DHT22;6021;51.182;3.160;2023-07-30T12:37:08;20.50;1.00
11922;DHT22;6021;51.182;3.160;2023-07-30T12:39:37;20.50;1.00
11922;DHT22;6021;51.182;3.160;2023-07-30T12:42:05;20.40;1.00
11922;DHT22;6021;51.182;3.160;2023-07-30T12:44:33;20.40;1.00
11922;DHT22;6021;51.182;3.160;2023-07-30T12:47:02;20.40;1.00
11922;DHT22;6021;51.182;3.160;2023-07-30T12:49:30;20.30;1.00
11922;DHT22;6021;51.182;3.160;2023-07-30T12:51:58;20.30;1.00
11922;DHT22;6021;51.182;3.160;2023-07-30T12:54:26;20.40;1.00
11922;DHT22;6021;51.182;3.160;2023-07-30T12:56:55;20.40;1.00
11922;DHT22;6021;51.182;3.160;2023-07-30T12:59:23;20.40;1.00
11922;DHT22;6021;51.182;3.160;2023-07-30T13:01:51;20.40;1.00
11922;DHT22;6021;51.182;3.160;2023-07-30T13:04:21;20.40;1.00
11922;DHT22;6021;51.182;3.160;2023-07-30T13:06:49;20.30;1.00
11922;DHT22;6021;51.182;3.160;2023-07-30T13:09:17;20.40;1.00
11922;DHT22;6021;51.182;3.160;2023-07-30T13:11:46;20.40;1.00
11922;DHT22;6021;51.182;3.160;2023-07-30T13:14:14;20.50;1.00
11922;DHT22;6021;51.182;3.160;2023-07-30T13:16:42;20.40;1.00
11922;DHT22;6021;51.182;3.160;2023-07-30T13:19:11;20.50;1.00
11922;DHT22;6021;51.182;3.160;2023-07-30T13:21:39;20.40;1.00
11922;DHT22;6021;51.182;3.160;2023-07-30T13:24:08;20.30;1.00
11922;DHT22;6021;51.182;3.160;2023-07-30T13:26:36;20.20;1.00
11922;DHT22;6021;51.182;3.160;2023-07-30T13:29:05;20.00;1.00
11922;DHT22;6021;51.182;3.160;2023-07-30T13:31:34;20.00;1.00
11922;DHT22;6021;51.182;3.160;2023-07-30T13:34:02;20.00;1.00
11922;DHT22;6021;51.182;3.160;2023-07-30T13:36:30;20.00;1.00
11922;DHT22;6021;51.182;3.160;2023-07-30T13:38:59;20.00;1.00
11922;DHT22;6021;51.182;3.160;2023-07-30T13:41:28;19.80;1.00
11922;DHT22;6021;51.182;3.160;2023-07-30T13:43:56;19.80;1.00
11922;DHT22;6021;51.182;3.160;2023-07-30T13:46:25;19.80;1.00
11922;DHT22;6021;51.182;3.160;2023-07-30T13:48:53;19.70;1.00
11922;DHT22;6021;51.182;3.160;2023-07-30T13:51:21;19.60;1.00
11922;DHT22;6021;51.182;3.160;2023-07-30T13:53:49;19.60;1.00
11922;DHT22;6021;51.182;3.160;2023-07-30T13:56:18;19.60;1.00
11922;DHT22;6021;51.182;3.160;2023-07-30T13:58:46;19.60;1.00
11922;DHT22;6021;51.182;3.160;2023-07-30T14:01:14;19.50;1.00
11922;DHT22;6021;51.182;3.160;2023-07-30T14:03:44;19.50;1.00
11922;DHT22;6021;51.182;3.160;2023-07-30T14:06:12;19.40;1.00
11922;DHT22;6021;51.182;3.160;2023-07-30T14:08:41;19.20;1.00
11922;DHT22;6021;51.182;3.160;2023-07-30T14:11:09;19.10;1.00
11922;DHT22;6021;51.182;3.160;2023-07-30T14:13:37;19.00;1.00
11922;DHT22;6021;51.182;3.160;2023-07-30T14:16:06;18.80;1.00
11922;DHT22;6021;51.182;3.160;2023-07-30T14:18:34;18.70;1.00
11922;DHT22;6021;51.182;3.160;2023-07-30T14:21:03;18.50;8.60
11922;DHT22;6021;51.182;3.160;2023-07-30T14:23:31;18.50;76.40
11922;DHT22;6021;51.182;3.160;2023-07-30T14:25:59;18.30;91.20
11922;DHT22;6021;51.182;3.160;2023-07-30T14:28:28;18.20;99.90
11922;DHT22;6021;51.182;3.160;2023-07-30T14:30:56;18.00;99.90
11922;DHT22;6021;51.182;3.160;2023-07-30T14:33:25;17.90;99.90
11922;DHT22;6021;51.182;3.160;2023-07-30T14:35:54;17.80;99.90
11922;DHT22;6021;51.182;3.160;2023-07-30T14:38:22;17.60;99.90
11922;DHT22;6021;51.182;3.160;2023-07-30T14:40:50;17.60;99.90
11922;DHT22;6021;51.182;3.160;2023-07-30T14:43:18;17.50;99.90
11922;DHT22;6021;51.182;3.160;2023-07-30T14:45:49;17.40;99.90
11922;DHT22;6021;51.182;3.160;2023-07-30T14:48:18;17.30;99.90
11922;DHT22;6021;51.182;3.160;2023-07-30T14:50:47;17.10;99.90
11922;DHT22;6021;51.182;3.160;2023-07-30T14:53:15;17.20;99.90
11922;DHT22;6021;51.182;3.160;2023-07-30T14:55:44;17.10;99.90
11922;DHT22;6021;51.182;3.160;2023-07-30T14:58:12;17.20;99.90
11922;DHT22;6021;51.182;3.160;2023-07-30T15:00:41;17.10;99.90
11922;DHT22;6021;51.182;3.160;2023-07-30T15:03:10;17.10;99.90
11922;DHT22;6021;51.182;3.160;2023-07-30T15:05:39;17.10;99.90
11922;DHT22;6021;51.182;3.160;2023-07-30T15:08:08;17.20;99.90
11922;DHT22;6021;51.182;3.160;2023-07-30T15:10:36;17.20;99.90
11922;DHT22;6021;51.182;3.160;2023-07-30T15:13:04;17.10;99.90
11922;DHT22;6021;51.182;3.160;2023-07-30T15:15:33;17.00;99.90
11922;DHT22;6021;51.182;3.160;2023-07-30T15:18:01;17.00;99.90
11922;DHT22;6021;51.182;3.160;2023-07-30T15:20:31;17.00;99.90
11922;DHT22;6021;51.182;3.160;2023-07-30T15:22:59;16.90;99.90
11922;DHT22;6021;51.182;3.160;2023-07-30T15:25:28;16.80;99.90
11922;DHT22;6021;51.182;3.160;2023-07-30T15:27:57;16.80;99.90
11922;DHT22;6021;51.182;3.160;2023-07-30T15:30:27;16.70;99.90
11922;DHT22;6021;51.182;3.160;2023-07-30T15:32:55;16.60;99.90
11922;DHT22;6021;51.182;3.160;2023-07-30T15:35:24;16.60;99.90
11922;DHT22;6021;51.182;3.160;2023-07-30T15:37:52;16.70;99.90
11922;DHT22;6021;51.182;3.160;2023-07-30T15:40:21;16.60;99.90
11922;DHT22;6021;51.182;3.160;2023-07-30T15:42:49;16.60;99.90
11922;DHT22;6021;51.182;3.160;2023-07-30T15:45:17;16.50;99.90
11922;DHT22;6021;51.182;3.160;2023-07-30T15:47:46;16.60;99.90
11922;DHT22;6021;51.182;3.160;2023-07-30T15:50:14;16.60;99.90
11922;DHT22;6021;51.182;3.160;2023-07-30T15:52:43;16.60;99.90
11922;DHT22;6021;51.182;3.160;2023-07-30T15:55:11;16.60;99.90
11922;DHT22;6021;51.182;3.160;2023-07-30T15:57:39;16.50;99.90
11922;DHT22;6021;51.182;3.160;2023-07-30T16:00:11;16.60;99.90
11922;DHT22;6021;51.182;3.160;2023-07-30T16:02:41;16.50;99.90
11922;DHT22;6021;51.182;3.160;2023-07-30T16:05:13;16.50;99.90
11922;DHT22;6021;51.182;3.160;2023-07-30T16:07:41;16.50;99.90
11922;DHT22;6021;51.182;3.160;2023-07-30T16:10:10;16.50;99.90